Moore Haven, Florida
Current Conditions -  °F | °C
As of 12:55 PM on Thursday 23 Oct 2014 (Local Time) from KIMM Reporting Station
Broken Clouds Broken Clouds  
Wind Chill: 81°   Ceiling: 3000
Heat Index: 85°   Visibility: 7mi
Dew Point: 72°   Wind: 13mph
Humidity: 74%   Direction: 80°E
Pressure: 29.96"   Gusts: NA
Location:  26.83°N, 81.09°W
Report Text: KIMM 231655Z AUTO 08011KT 7SM BKN030 27/22 A2996 RMK A01 P000
Loading
Personal Weather Stations






























Interactive Weather Map
Tropical Storm Tracking
New forecast layout! Learn more

10-Day Weather Forecast

Advertisements
Track Severe Weather on mobile